sensor_id;sensor_type;location;lat;lon;timestamp;P1;durP1;ratioP1;P2;durP2;ratioP2
65275;SDS011;51875;49.994;14.052;2023-08-31T00:00:13;5.63;;;4.10;;
65275;SDS011;51875;49.994;14.052;2023-08-31T00:01:50;6.82;;;4.60;;
65275;SDS011;51875;49.994;14.052;2023-08-31T00:03:08;5.43;;;4.20;;
65275;SDS011;51875;49.994;14.052;2023-08-31T00:04:26;7.35;;;4.60;;
65275;SDS011;51875;49.994;14.052;2023-08-31T00:05:42;6.65;;;4.70;;
65275;SDS011;51875;49.994;14.052;2023-08-31T00:06:58;9.65;;;4.97;;
65275;SDS011;51875;49.994;14.052;2023-08-31T00:08:14;5.38;;;4.07;;
65275;SDS011;51875;49.994;14.052;2023-08-31T00:09:30;9.02;;;4.65;;
65275;SDS011;51875;49.994;14.052;2023-08-31T00:10:45;6.20;;;4.10;;
65275;SDS011;51875;49.994;14.052;2023-08-31T00:12:01;7.30;;;4.60;;
65275;SDS011;51875;49.994;14.052;2023-08-31T00:13:18;8.75;;;4.57;;
65275;SDS011;51875;49.994;14.052;2023-08-31T00:14:33;10.82;;;4.43;;
65275;SDS011;51875;49.994;14.052;2023-08-31T00:15:49;4.85;;;3.70;;
65275;SDS011;51875;49.994;14.052;2023-08-31T00:17:04;6.93;;;4.35;;
65275;SDS011;51875;49.994;14.052;2023-08-31T00:18:20;5.72;;;4.53;;
65275;SDS011;51875;49.994;14.052;2023-08-31T00:19:36;5.63;;;4.50;;
65275;SDS011;51875;49.994;14.052;2023-08-31T00:20:51;8.23;;;4.65;;
65275;SDS011;51875;49.994;14.052;2023-08-31T00:22:07;7.22;;;4.60;;
65275;SDS011;51875;49.994;14.052;2023-08-31T00:23:23;6.78;;;4.30;;
65275;SDS011;51875;49.994;14.052;2023-08-31T00:24:38;7.90;;;4.40;;
65275;SDS011;51875;49.994;14.052;2023-08-31T00:25:54;6.53;;;4.10;;
65275;SDS011;51875;49.994;14.052;2023-08-31T00:27:10;5.30;;;3.95;;
65275;SDS011;51875;49.994;14.052;2023-08-31T00:28:27;4.93;;;4.38;;
65275;SDS011;51875;49.994;14.052;2023-08-31T00:29:43;7.03;;;5.10;;
65275;SDS011;51875;49.994;14.052;2023-08-31T00:31:04;6.00;;;4.47;;
65275;SDS011;51875;49.994;14.052;2023-08-31T00:32:20;6.47;;;4.78;;
65275;SDS011;51875;49.994;14.052;2023-08-31T00:33:38;5.50;;;4.50;;
65275;SDS011;51875;49.994;14.052;2023-08-31T00:34:53;7.28;;;5.20;;
65275;SDS011;51875;49.994;14.052;2023-08-31T00:36:09;8.40;;;5.15;;
65275;SDS011;51875;49.994;14.052;2023-08-31T00:37:24;7.65;;;5.28;;
65275;SDS011;51875;49.994;14.052;2023-08-31T00:38:41;7.75;;;5.45;;
65275;SDS011;51875;49.994;14.052;2023-08-31T00:39:56;6.28;;;4.90;;
65275;SDS011;51875;49.994;14.052;2023-08-31T00:41:12;6.82;;;4.90;;
65275;SDS011;51875;49.994;14.052;2023-08-31T00:42:28;6.65;;;5.00;;
65275;SDS011;51875;49.994;14.052;2023-08-31T00:43:44;8.10;;;4.70;;
65275;SDS011;51875;49.994;14.052;2023-08-31T00:45:00;7.30;;;4.85;;
65275;SDS011;51875;49.994;14.052;2023-08-31T00:46:15;5.95;;;4.20;;
65275;SDS011;51875;49.994;14.052;2023-08-31T00:47:31;5.72;;;4.68;;
65275;SDS011;51875;49.994;14.052;2023-08-31T00:48:47;6.97;;;4.88;;
65275;SDS011;51875;49.994;14.052;2023-08-31T00:50:02;6.95;;;4.63;;
65275;SDS011;51875;49.994;14.052;2023-08-31T00:51:18;9.25;;;4.75;;
65275;SDS011;51875;49.994;14.052;2023-08-31T00:52:34;5.28;;;4.38;;
65275;SDS011;51875;49.994;14.052;2023-08-31T00:53:52;6.63;;;4.57;;
65275;SDS011;51875;49.994;14.052;2023-08-31T00:55:11;5.88;;;4.60;;
65275;SDS011;51875;49.994;14.052;2023-08-31T00:56:26;5.40;;;4.55;;
65275;SDS011;51875;49.994;14.052;2023-08-31T00:57:42;7.35;;;4.50;;
65275;SDS011;51875;49.994;14.052;2023-08-31T00:58:58;6.55;;;4.82;;
65275;SDS011;51875;49.994;14.052;2023-08-31T01:00:13;7.25;;;4.22;;
65275;SDS011;51875;49.994;14.052;2023-08-31T01:01:43;7.05;;;4.40;;
65275;SDS011;51875;49.994;14.052;2023-08-31T01:03:13;5.82;;;4.70;;
65275;SDS011;51875;49.994;14.052;2023-08-31T01:05:08;6.10;;;4.32;;
65275;SDS011;51875;49.994;14.052;2023-08-31T01:06:49;6.95;;;4.45;;
65275;SDS011;51875;49.994;14.052;2023-08-31T01:11:56;7.57;;;4.20;;
65275;SDS011;51875;49.994;14.052;2023-08-31T01:13:15;5.88;;;4.20;;
65275;SDS011;51875;49.994;14.052;2023-08-31T01:14:42;4.65;;;4.10;;
65275;SDS011;51875;49.994;14.052;2023-08-31T01:16:03;8.20;;;4.50;;
65275;SDS011;51875;49.994;14.052;2023-08-31T01:17:22;7.82;;;4.10;;
65275;SDS011;51875;49.994;14.052;2023-08-31T01:18:39;6.47;;;3.83;;
65275;SDS011;51875;49.994;14.052;2023-08-31T01:19:55;5.50;;;4.43;;
65275;SDS011;51875;49.994;14.052;2023-08-31T01:24:14;4.82;;;3.80;;
65275;SDS011;51875;49.994;14.052;2023-08-31T01:25:30;6.72;;;4.13;;
65275;SDS011;51875;49.994;14.052;2023-08-31T01:26:47;5.10;;;4.10;;
65275;SDS011;51875;49.994;14.052;2023-08-31T01:28:03;5.95;;;3.75;;
65275;SDS011;51875;49.994;14.052;2023-08-31T01:29:20;4.75;;;3.90;;
65275;SDS011;51875;49.994;14.052;2023-08-31T01:30:36;5.93;;;4.30;;
65275;SDS011;51875;49.994;14.052;2023-08-31T01:31:51;6.18;;;4.00;;
65275;SDS011;51875;49.994;14.052;2023-08-31T01:33:07;5.35;;;4.30;;
65275;SDS011;51875;49.994;14.052;2023-08-31T01:34:23;6.40;;;4.38;;
65275;SDS011;51875;49.994;14.052;2023-08-31T01:35:46;12.00;;;4.25;;
65275;SDS011;51875;49.994;14.052;2023-08-31T01:37:10;8.07;;;4.35;;
65275;SDS011;51875;49.994;14.052;2023-08-31T01:38:32;7.90;;;5.63;;
65275;SDS011;51875;49.994;14.052;2023-08-31T01:39:52;7.10;;;4.80;;
65275;SDS011;51875;49.994;14.052;2023-08-31T01:41:12;5.45;;;3.80;;
65275;SDS011;51875;49.994;14.052;2023-08-31T01:42:33;8.65;;;3.90;;
65275;SDS011;51875;49.994;14.052;2023-08-31T01:43:48;4.97;;;3.90;;
65275;SDS011;51875;49.994;14.052;2023-08-31T01:45:08;5.30;;;3.70;;
65275;SDS011;51875;49.994;14.052;2023-08-31T01:46:25;5.00;;;4.10;;
65275;SDS011;51875;49.994;14.052;2023-08-31T01:47:42;23.20;;;4.40;;
65275;SDS011;51875;49.994;14.052;2023-08-31T01:48:58;4.28;;;3.70;;
65275;SDS011;51875;49.994;14.052;2023-08-31T01:50:21;8.18;;;4.00;;
65275;SDS011;51875;49.994;14.052;2023-08-31T01:51:39;4.90;;;4.10;;
65275;SDS011;51875;49.994;14.052;2023-08-31T01:52:54;4.47;;;4.07;;
65275;SDS011;51875;49.994;14.052;2023-08-31T01:54:10;8.32;;;4.18;;
65275;SDS011;51875;49.994;14.052;2023-08-31T01:55:26;5.78;;;3.95;;
65275;SDS011;51875;49.994;14.052;2023-08-31T01:56:42;5.95;;;3.67;;
65275;SDS011;51875;49.994;14.052;2023-08-31T01:57:57;6.53;;;3.97;;
65275;SDS011;51875;49.994;14.052;2023-08-31T01:59:13;6.30;;;4.00;;
65275;SDS011;51875;49.994;14.052;2023-08-31T02:00:28;10.45;;;5.32;;
65275;SDS011;51875;49.994;14.052;2023-08-31T02:01:44;27.08;;;5.20;;
65275;SDS011;51875;49.994;14.052;2023-08-31T02:03:00;10.50;;;4.80;;
65275;SDS011;51875;49.994;14.052;2023-08-31T02:04:15;6.45;;;4.70;;
65275;SDS011;51875;49.994;14.052;2023-08-31T02:05:32;5.93;;;4.55;;
65275;SDS011;51875;49.994;14.052;2023-08-31T02:06:47;6.82;;;4.95;;
65275;SDS011;51875;49.994;14.052;2023-08-31T02:08:03;7.47;;;5.28;;
65275;SDS011;51875;49.994;14.052;2023-08-31T02:09:19;6.80;;;4.93;;
65275;SDS011;51875;49.994;14.052;2023-08-31T02:10:35;6.18;;;4.68;;
65275;SDS011;51875;49.994;14.052;2023-08-31T02:11:50;6.35;;;5.05;;
65275;SDS011;51875;49.994;14.052;2023-08-31T02:13:06;6.40;;;4.90;;
65275;SDS011;51875;49.994;14.052;2023-08-31T02:14:21;5.22;;;4.50;;
65275;SDS011;51875;49.994;14.052;2023-08-31T02:15:38;6.07;;;4.75;;
65275;SDS011;51875;49.994;14.052;2023-08-31T02:16:54;6.78;;;4.75;;
65275;SDS011;51875;49.994;14.052;2023-08-31T02:18:11;8.30;;;4.82;;
65275;SDS011;51875;49.994;14.052;2023-08-31T02:19:26;6.78;;;4.68;;
65275;SDS011;51875;49.994;14.052;2023-08-31T02:20:42;6.57;;;4.43;;
65275;SDS011;51875;49.994;14.052;2023-08-31T02:21:58;31.42;;;5.93;;
65275;SDS011;51875;49.994;14.052;2023-08-31T02:23:13;9.00;;;5.25;;
65275;SDS011;51875;49.994;14.052;2023-08-31T02:24:29;8.13;;;5.30;;
65275;SDS011;51875;49.994;14.052;2023-08-31T02:25:44;9.13;;;5.88;;
65275;SDS011;51875;49.994;14.052;2023-08-31T02:27:00;7.72;;;5.38;;
65275;SDS011;51875;49.994;14.052;2023-08-31T02:28:16;7.13;;;5.03;;
65275;SDS011;51875;49.994;14.052;2023-08-31T02:29:33;6.30;;;5.30;;
65275;SDS011;51875;49.994;14.052;2023-08-31T02:30:56;7.97;;;5.43;;
65275;SDS011;51875;49.994;14.052;2023-08-31T02:32:13;11.43;;;4.82;;
65275;SDS011;51875;49.994;14.052;2023-08-31T02:33:29;7.93;;;5.40;;
65275;SDS011;51875;49.994;14.052;2023-08-31T02:34:44;10.02;;;5.15;;
65275;SDS011;51875;49.994;14.052;2023-08-31T02:36:00;9.00;;;5.28;;
65275;SDS011;51875;49.994;14.052;2023-08-31T02:37:16;6.30;;;4.93;;
65275;SDS011;51875;49.994;14.052;2023-08-31T02:38:31;8.02;;;4.93;;
65275;SDS011;51875;49.994;14.052;2023-08-31T02:39:47;7.50;;;5.40;;
65275;SDS011;51875;49.994;14.052;2023-08-31T02:41:03;8.77;;;5.00;;
65275;SDS011;51875;49.994;14.052;2023-08-31T02:42:18;6.35;;;5.15;;
65275;SDS011;51875;49.994;14.052;2023-08-31T02:43:34;5.80;;;4.97;;
65275;SDS011;51875;49.994;14.052;2023-08-31T02:44:51;7.35;;;5.00;;
65275;SDS011;51875;49.994;14.052;2023-08-31T02:46:09;5.53;;;4.75;;
65275;SDS011;51875;49.994;14.052;2023-08-31T02:47:24;6.90;;;5.15;;
65275;SDS011;51875;49.994;14.052;2023-08-31T02:48:39;5.25;;;4.75;;
65275;SDS011;51875;49.994;14.052;2023-08-31T02:49:55;8.90;;;5.20;;
65275;SDS011;51875;49.994;14.052;2023-08-31T02:51:11;6.20;;;5.20;;
65275;SDS011;51875;49.994;14.052;2023-08-31T02:52:27;6.32;;;4.40;;
65275;SDS011;51875;49.994;14.052;2023-08-31T02:53:42;5.90;;;4.70;;
65275;SDS011;51875;49.994;14.052;2023-08-31T02:54:58;8.65;;;4.80;;
65275;SDS011;51875;49.994;14.052;2023-08-31T02:56:13;5.93;;;4.45;;
65275;SDS011;51875;49.994;14.052;2023-08-31T02:57:29;6.25;;;4.70;;
65275;SDS011;51875;49.994;14.052;2023-08-31T02:58:45;7.68;;;5.25;;
65275;SDS011;51875;49.994;14.052;2023-08-31T03:00:01;8.43;;;6.10;;
65275;SDS011;51875;49.994;14.052;2023-08-31T03:01:17;9.68;;;6.28;;
65275;SDS011;51875;49.994;14.052;2023-08-31T03:02:33;8.02;;;5.38;;
65275;SDS011;51875;49.994;14.052;2023-08-31T03:03:49;10.05;;;5.70;;
65275;SDS011;51875;49.994;14.052;2023-08-31T03:05:05;8.00;;;5.95;;
65275;SDS011;51875;49.994;14.052;2023-08-31T03:06:21;7.10;;;5.05;;
65275;SDS011;51875;49.994;14.052;2023-08-31T03:07:36;9.43;;;5.25;;
65275;SDS011;51875;49.994;14.052;2023-08-31T03:08:52;7.43;;;4.95;;
65275;SDS011;51875;49.994;14.052;2023-08-31T03:10:07;8.35;;;4.70;;
65275;SDS011;51875;49.994;14.052;2023-08-31T03:11:23;4.95;;;4.45;;
65275;SDS011;51875;49.994;14.052;2023-08-31T03:12:39;5.57;;;4.30;;
65275;SDS011;51875;49.994;14.052;2023-08-31T03:13:54;5.97;;;3.95;;
65275;SDS011;51875;49.994;14.052;2023-08-31T03:15:10;4.57;;;3.70;;
65275;SDS011;51875;49.994;14.052;2023-08-31T03:16:26;4.57;;;3.90;;
65275;SDS011;51875;49.994;14.052;2023-08-31T03:17:41;4.50;;;3.90;;
65275;SDS011;51875;49.994;14.052;2023-08-31T03:18:57;4.85;;;4.15;;
65275;SDS011;51875;49.994;14.052;2023-08-31T03:20:12;6.38;;;4.10;;
65275;SDS011;51875;49.994;14.052;2023-08-31T03:21:28;6.32;;;4.40;;
65275;SDS011;51875;49.994;14.052;2023-08-31T03:22:44;5.20;;;4.53;;
65275;SDS011;51875;49.994;14.052;2023-08-31T03:23:59;5.10;;;4.40;;
65275;SDS011;51875;49.994;14.052;2023-08-31T03:25:15;5.78;;;4.43;;
65275;SDS011;51875;49.994;14.052;2023-08-31T03:26:31;8.73;;;4.70;;
65275;SDS011;51875;49.994;14.052;2023-08-31T03:27:46;7.75;;;4.38;;
65275;SDS011;51875;49.994;14.052;2023-08-31T03:29:02;5.68;;;4.78;;
65275;SDS011;51875;49.994;14.052;2023-08-31T03:30:18;5.82;;;4.47;;
65275;SDS011;51875;49.994;14.052;2023-08-31T03:31:33;10.45;;;4.95;;
65275;SDS011;51875;49.994;14.052;2023-08-31T03:32:49;6.65;;;4.72;;
65275;SDS011;51875;49.994;14.052;2023-08-31T03:34:05;6.18;;;4.45;;
65275;SDS011;51875;49.994;14.052;2023-08-31T03:35:20;5.18;;;4.30;;
65275;SDS011;51875;49.994;14.052;2023-08-31T03:36:41;4.50;;;4.10;;
65275;SDS011;51875;49.994;14.052;2023-08-31T03:37:57;4.70;;;3.88;;
65275;SDS011;51875;49.994;14.052;2023-08-31T03:39:12;4.72;;;3.60;;
65275;SDS011;51875;49.994;14.052;2023-08-31T03:40:28;4.30;;;3.58;;
65275;SDS011;51875;49.994;14.052;2023-08-31T03:41:44;6.10;;;4.00;;
65275;SDS011;51875;49.994;14.052;2023-08-31T03:42:59;4.70;;;4.20;;
65275;SDS011;51875;49.994;14.052;2023-08-31T03:44:15;5.57;;;4.57;;
65275;SDS011;51875;49.994;14.052;2023-08-31T03:45:31;6.40;;;4.20;;
65275;SDS011;51875;49.994;14.052;2023-08-31T03:46:46;5.72;;;4.85;;
65275;SDS011;51875;49.994;14.052;2023-08-31T03:48:02;4.93;;;4.03;;
65275;SDS011;51875;49.994;14.052;2023-08-31T03:49:18;6.35;;;4.85;;
65275;SDS011;51875;49.994;14.052;2023-08-31T03:50:34;7.03;;;4.70;;
65275;SDS011;51875;49.994;14.052;2023-08-31T03:51:49;6.00;;;4.90;;
65275;SDS011;51875;49.994;14.052;2023-08-31T03:53:05;6.05;;;4.82;;
65275;SDS011;51875;49.994;14.052;2023-08-31T03:54:20;7.72;;;4.80;;
65275;SDS011;51875;49.994;14.052;2023-08-31T03:55:36;6.40;;;4.50;;
65275;SDS011;51875;49.994;14.052;2023-08-31T03:56:52;3.90;;;3.47;;
65275;SDS011;51875;49.994;14.052;2023-08-31T03:58:08;4.30;;;3.70;;
65275;SDS011;51875;49.994;14.052;2023-08-31T03:59:23;4.63;;;3.80;;
65275;SDS011;51875;49.994;14.052;2023-08-31T04:00:39;4.32;;;3.65;;
65275;SDS011;51875;49.994;14.052;2023-08-31T04:01:54;4.22;;;3.83;;
65275;SDS011;51875;49.994;14.052;2023-08-31T04:03:10;5.88;;;4.13;;
65275;SDS011;51875;49.994;14.052;2023-08-31T04:04:26;4.47;;;4.07;;
65275;SDS011;51875;49.994;14.052;2023-08-31T04:05:41;6.47;;;3.80;;
65275;SDS011;51875;49.994;14.052;2023-08-31T04:06:58;5.68;;;3.83;;
65275;SDS011;51875;49.994;14.052;2023-08-31T04:08:13;7.47;;;4.20;;
65275;SDS011;51875;49.994;14.052;2023-08-31T04:09:29;5.28;;;4.25;;
65275;SDS011;51875;49.994;14.052;2023-08-31T04:10:45;6.80;;;4.47;;
65275;SDS011;51875;49.994;14.052;2023-08-31T04:12:01;5.28;;;4.47;;
65275;SDS011;51875;49.994;14.052;2023-08-31T04:13:16;5.72;;;4.95;;
65275;SDS011;51875;49.994;14.052;2023-08-31T04:14:31;5.57;;;4.65;;
65275;SDS011;51875;49.994;14.052;2023-08-31T04:15:47;7.45;;;4.57;;
65275;SDS011;51875;49.994;14.052;2023-08-31T04:17:03;5.40;;;4.90;;
65275;SDS011;51875;49.994;14.052;2023-08-31T04:18:20;8.73;;;4.00;;
65275;SDS011;51875;49.994;14.052;2023-08-31T04:19:35;5.93;;;4.00;;
65275;SDS011;51875;49.994;14.052;2023-08-31T04:20:52;6.53;;;4.10;;
65275;SDS011;51875;49.994;14.052;2023-08-31T04:22:08;5.75;;;3.88;;
65275;SDS011;51875;49.994;14.052;2023-08-31T04:23:24;4.88;;;3.67;;
65275;SDS011;51875;49.994;14.052;2023-08-31T04:24:39;3.47;;;3.17;;
65275;SDS011;51875;49.994;14.052;2023-08-31T04:25:55;3.22;;;2.83;;
65275;SDS011;51875;49.994;14.052;2023-08-31T04:27:12;5.15;;;3.92;;
65275;SDS011;51875;49.994;14.052;2023-08-31T04:28:28;3.53;;;3.22;;
65275;SDS011;51875;49.994;14.052;2023-08-31T04:29:43;6.50;;;3.63;;
65275;SDS011;51875;49.994;14.052;2023-08-31T04:30:59;5.45;;;3.95;;
65275;SDS011;51875;49.994;14.052;2023-08-31T04:32:14;3.88;;;3.40;;
65275;SDS011;51875;49.994;14.052;2023-08-31T04:33:30;8.23;;;3.85;;
65275;SDS011;51875;49.994;14.052;2023-08-31T04:34:45;3.78;;;3.17;;
65275;SDS011;51875;49.994;14.052;2023-08-31T04:36:02;8.40;;;3.85;;
65275;SDS011;51875;49.994;14.052;2023-08-31T04:37:18;5.63;;;4.05;;
65275;SDS011;51875;49.994;14.052;2023-08-31T04:38:34;5.05;;;4.18;;
65275;SDS011;51875;49.994;14.052;2023-08-31T04:39:50;4.35;;;3.90;;
65275;SDS011;51875;49.994;14.052;2023-08-31T04:41:05;4.80;;;3.80;;
65275;SDS011;51875;49.994;14.052;2023-08-31T04:42:21;3.55;;;3.03;;
65275;SDS011;51875;49.994;14.052;2023-08-31T04:43:36;5.30;;;3.67;;
65275;SDS011;51875;49.994;14.052;2023-08-31T04:44:52;3.90;;;3.22;;
65275;SDS011;51875;49.994;14.052;2023-08-31T04:46:08;4.30;;;3.10;;
65275;SDS011;51875;49.994;14.052;2023-08-31T04:47:23;4.47;;;3.30;;
65275;SDS011;51875;49.994;14.052;2023-08-31T04:48:39;6.85;;;3.47;;
65275;SDS011;51875;49.994;14.052;2023-08-31T04:49:55;3.83;;;3.30;;
65275;SDS011;51875;49.994;14.052;2023-08-31T04:52:49;3.72;;;2.90;;
65275;SDS011;51875;49.994;14.052;2023-08-31T04:54:05;4.45;;;3.10;;
65275;SDS011;51875;49.994;14.052;2023-08-31T04:55:21;3.83;;;3.10;;
65275;SDS011;51875;49.994;14.052;2023-08-31T04:56:37;3.30;;;3.00;;
65275;SDS011;51875;49.994;14.052;2023-08-31T04:57:52;3.65;;;3.15;;
65275;SDS011;51875;49.994;14.052;2023-08-31T04:59:08;5.72;;;3.35;;
65275;SDS011;51875;49.994;14.052;2023-08-31T05:00:24;4.68;;;3.00;;
65275;SDS011;51875;49.994;14.052;2023-08-31T05:01:40;4.47;;;2.90;;
65275;SDS011;51875;49.994;14.052;2023-08-31T05:02:56;4.00;;;3.30;;
65275;SDS011;51875;49.994;14.052;2023-08-31T05:04:12;3.30;;;3.00;;
65275;SDS011;51875;49.994;14.052;2023-08-31T05:05:27;3.90;;;2.90;;
65275;SDS011;51875;49.994;14.052;2023-08-31T05:06:43;3.97;;;2.78;;
65275;SDS011;51875;49.994;14.052;2023-08-31T05:07:58;3.15;;;2.85;;
65275;SDS011;51875;49.994;14.052;2023-08-31T05:09:14;5.60;;;2.90;;
65275;SDS011;51875;49.994;14.052;2023-08-31T05:10:30;4.13;;;3.22;;
65275;SDS011;51875;49.994;14.052;2023-08-31T05:11:45;3.70;;;3.13;;
65275;SDS011;51875;49.994;14.052;2023-08-31T05:13:01;3.85;;;2.80;;
65275;SDS011;51875;49.994;14.052;2023-08-31T05:14:17;4.50;;;2.95;;
65275;SDS011;51875;49.994;14.052;2023-08-31T05:15:32;3.05;;;2.63;;
65275;SDS011;51875;49.994;14.052;2023-08-31T05:16:48;3.17;;;2.85;;
65275;SDS011;51875;49.994;14.052;2023-08-31T05:18:04;3.58;;;2.47;;
65275;SDS011;51875;49.994;14.052;2023-08-31T05:19:20;3.10;;;2.80;;
65275;SDS011;51875;49.994;14.052;2023-08-31T05:20:35;3.20;;;2.90;;
65275;SDS011;51875;49.994;14.052;2023-08-31T05:21:51;3.33;;;2.67;;
65275;SDS011;51875;49.994;14.052;2023-08-31T05:23:06;4.45;;;3.17;;
65275;SDS011;51875;49.994;14.052;2023-08-31T05:24:22;3.60;;;2.97;;
65275;SDS011;51875;49.994;14.052;2023-08-31T05:25:44;4.13;;;2.97;;
65275;SDS011;51875;49.994;14.052;2023-08-31T05:27:00;3.65;;;3.13;;
65275;SDS011;51875;49.994;14.052;2023-08-31T05:28:15;3.03;;;2.72;;
65275;SDS011;51875;49.994;14.052;2023-08-31T05:29:31;4.57;;;3.05;;
65275;SDS011;51875;49.994;14.052;2023-08-31T05:30:50;3.58;;;2.70;;
65275;SDS011;51875;49.994;14.052;2023-08-31T05:32:06;4.53;;;2.95;;
65275;SDS011;51875;49.994;14.052;2023-08-31T05:33:22;3.00;;;2.70;;
65275;SDS011;51875;49.994;14.052;2023-08-31T05:34:38;3.20;;;2.70;;
65275;SDS011;51875;49.994;14.052;2023-08-31T05:35:54;4.05;;;3.13;;
65275;SDS011;51875;49.994;14.052;2023-08-31T05:37:10;4.00;;;3.30;;
65275;SDS011;51875;49.994;14.052;2023-08-31T05:38:25;3.50;;;3.17;;
65275;SDS011;51875;49.994;14.052;2023-08-31T05:39:41;3.83;;;2.85;;
65275;SDS011;51875;49.994;14.052;2023-08-31T05:41:06;3.53;;;2.97;;
65275;SDS011;51875;49.994;14.052;2023-08-31T05:42:23;4.47;;;2.58;;
65275;SDS011;51875;49.994;14.052;2023-08-31T05:43:39;5.50;;;3.25;;
65275;SDS011;51875;49.994;14.052;2023-08-31T05:44:57;3.08;;;2.63;;
65275;SDS011;51875;49.994;14.052;2023-08-31T05:46:13;3.05;;;2.70;;
65275;SDS011;51875;49.994;14.052;2023-08-31T05:47:29;4.68;;;2.35;;
65275;SDS011;51875;49.994;14.052;2023-08-31T05:48:44;3.08;;;2.75;;
65275;SDS011;51875;49.994;14.052;2023-08-31T05:50:00;3.15;;;2.53;;
65275;SDS011;51875;49.994;14.052;2023-08-31T05:51:16;3.25;;;2.88;;
65275;SDS011;51875;49.994;14.052;2023-08-31T05:52:31;2.50;;;2.30;;
65275;SDS011;51875;49.994;14.052;2023-08-31T05:53:47;2.95;;;2.50;;
65275;SDS011;51875;49.994;14.052;2023-08-31T05:55:02;3.55;;;2.78;;
65275;SDS011;51875;49.994;14.052;2023-08-31T05:56:19;16.25;;;3.75;;
65275;SDS011;51875;49.994;14.052;2023-08-31T05:57:35;3.70;;;3.00;;
65275;SDS011;51875;49.994;14.052;2023-08-31T05:58:50;4.50;;;2.70;;
65275;SDS011;51875;49.994;14.052;2023-08-31T06:00:09;3.95;;;2.85;;
65275;SDS011;51875;49.994;14.052;2023-08-31T06:01:26;3.15;;;2.47;;
65275;SDS011;51875;49.994;14.052;2023-08-31T06:02:42;4.03;;;2.17;;
65275;SDS011;51875;49.994;14.052;2023-08-31T06:03:59;3.78;;;2.72;;
65275;SDS011;51875;49.994;14.052;2023-08-31T06:05:15;3.70;;;2.88;;
65275;SDS011;51875;49.994;14.052;2023-08-31T06:06:34;3.33;;;2.40;;
65275;SDS011;51875;49.994;14.052;2023-08-31T06:07:49;3.20;;;2.65;;
65275;SDS011;51875;49.994;14.052;2023-08-31T06:09:05;5.25;;;2.63;;
65275;SDS011;51875;49.994;14.052;2023-08-31T06:10:22;2.90;;;2.60;;
65275;SDS011;51875;49.994;14.052;2023-08-31T06:11:41;1.40;;;1.30;;
65275;SDS011;51875;49.994;14.052;2023-08-31T06:12:57;2.28;;;1.88;;
65275;SDS011;51875;49.994;14.052;2023-08-31T06:14:12;2.42;;;1.50;;
65275;SDS011;51875;49.994;14.052;2023-08-31T06:15:28;2.53;;;1.90;;
65275;SDS011;51875;49.994;14.052;2023-08-31T06:16:43;2.42;;;1.98;;
65275;SDS011;51875;49.994;14.052;2023-08-31T06:17:59;3.35;;;2.38;;
65275;SDS011;51875;49.994;14.052;2023-08-31T06:19:14;3.10;;;2.42;;
65275;SDS011;51875;49.994;14.052;2023-08-31T06:20:30;4.53;;;2.25;;
65275;SDS011;51875;49.994;14.052;2023-08-31T06:21:46;2.20;;;1.70;;
65275;SDS011;51875;49.994;14.052;2023-08-31T06:23:03;3.20;;;2.40;;
65275;SDS011;51875;49.994;14.052;2023-08-31T06:24:19;1.52;;;1.27;;
65275;SDS011;51875;49.994;14.052;2023-08-31T06:25:34;6.30;;;1.73;;
65275;SDS011;51875;49.994;14.052;2023-08-31T06:26:50;2.38;;;1.50;;
65275;SDS011;51875;49.994;14.052;2023-08-31T06:28:06;1.98;;;1.77;;
65275;SDS011;51875;49.994;14.052;2023-08-31T06:29:23;4.47;;;2.00;;
65275;SDS011;51875;49.994;14.052;2023-08-31T06:30:40;3.10;;;2.25;;
65275;SDS011;51875;49.994;14.052;2023-08-31T06:33:17;2.15;;;1.83;;
65275;SDS011;51875;49.994;14.052;2023-08-31T06:34:35;2.53;;;1.58;;
65275;SDS011;51875;49.994;14.052;2023-08-31T06:35:50;3.35;;;2.10;;
65275;SDS011;51875;49.994;14.052;2023-08-31T06:37:09;2.00;;;1.80;;
65275;SDS011;51875;49.994;14.052;2023-08-31T06:38:25;2.35;;;1.70;;
65275;SDS011;51875;49.994;14.052;2023-08-31T06:39:40;2.88;;;2.10;;
65275;SDS011;51875;49.994;14.052;2023-08-31T06:40:56;3.70;;;2.20;;
65275;SDS011;51875;49.994;14.052;2023-08-31T06:42:14;4.53;;;2.10;;
65275;SDS011;51875;49.994;14.052;2023-08-31T06:43:29;1.77;;;1.60;;
65275;SDS011;51875;49.994;14.052;2023-08-31T06:44:45;2.15;;;1.92;;
65275;SDS011;51875;49.994;14.052;2023-08-31T06:46:01;5.22;;;3.20;;
65275;SDS011;51875;49.994;14.052;2023-08-31T06:47:16;2.67;;;1.80;;
65275;SDS011;51875;49.994;14.052;2023-08-31T06:48:32;2.38;;;1.77;;
65275;SDS011;51875;49.994;14.052;2023-08-31T06:49:49;1.98;;;1.77;;
65275;SDS011;51875;49.994;14.052;2023-08-31T06:51:04;2.65;;;1.70;;
65275;SDS011;51875;49.994;14.052;2023-08-31T06:52:20;2.53;;;1.60;;
65275;SDS011;51875;49.994;14.052;2023-08-31T06:53:35;1.50;;;1.30;;
65275;SDS011;51875;49.994;14.052;2023-08-31T06:54:52;2.78;;;1.55;;
65275;SDS011;51875;49.994;14.052;2023-08-31T06:56:11;1.50;;;1.25;;
65275;SDS011;51875;49.994;14.052;2023-08-31T06:57:27;4.35;;;1.58;;
65275;SDS011;51875;49.994;14.052;2023-08-31T06:58:43;1.92;;;1.63;;
65275;SDS011;51875;49.994;14.052;2023-08-31T06:59:58;1.38;;;1.27;;
65275;SDS011;51875;49.994;14.052;2023-08-31T07:01:14;1.23;;;1.02;;
65275;SDS011;51875;49.994;14.052;2023-08-31T07:02:30;2.25;;;1.63;;
65275;SDS011;51875;49.994;14.052;2023-08-31T07:03:45;1.50;;;1.08;;
65275;SDS011;51875;49.994;14.052;2023-08-31T07:05:01;2.20;;;1.73;;
65275;SDS011;51875;49.994;14.052;2023-08-31T07:06:16;2.10;;;1.35;;
65275;SDS011;51875;49.994;14.052;2023-08-31T07:07:32;1.90;;;1.20;;
65275;SDS011;51875;49.994;14.052;2023-08-31T07:08:48;2.88;;;1.60;;
65275;SDS011;51875;49.994;14.052;2023-08-31T07:10:04;1.60;;;1.50;;
65275;SDS011;51875;49.994;14.052;2023-08-31T07:11:21;3.00;;;1.42;;
65275;SDS011;51875;49.994;14.052;2023-08-31T07:12:36;2.42;;;1.27;;
65275;SDS011;51875;49.994;14.052;2023-08-31T07:13:52;1.40;;;1.20;;
65275;SDS011;51875;49.994;14.052;2023-08-31T07:15:08;0.85;;;0.82;;
65275;SDS011;51875;49.994;14.052;2023-08-31T07:16:24;1.10;;;1.00;;
65275;SDS011;51875;49.994;14.052;2023-08-31T07:17:39;1.27;;;1.15;;
65275;SDS011;51875;49.994;14.052;2023-08-31T07:18:55;1.33;;;1.10;;
65275;SDS011;51875;49.994;14.052;2023-08-31T07:20:11;2.88;;;1.17;;
65275;SDS011;51875;49.994;14.052;2023-08-31T07:21:27;1.55;;;1.25;;
65275;SDS011;51875;49.994;14.052;2023-08-31T07:22:43;3.22;;;1.85;;
65275;SDS011;51875;49.994;14.052;2023-08-31T07:23:58;2.17;;;1.40;;
65275;SDS011;51875;49.994;14.052;2023-08-31T07:25:13;5.40;;;1.60;;
65275;SDS011;51875;49.994;14.052;2023-08-31T07:26:30;2.03;;;0.93;;
65275;SDS011;51875;49.994;14.052;2023-08-31T07:27:45;1.98;;;1.20;;
65275;SDS011;51875;49.994;14.052;2023-08-31T07:29:01;1.30;;;1.20;;
65275;SDS011;51875;49.994;14.052;2023-08-31T07:30:20;1.92;;;1.50;;
65275;SDS011;51875;49.994;14.052;2023-08-31T07:31:36;2.28;;;1.60;;
65275;SDS011;51875;49.994;14.052;2023-08-31T07:32:51;1.52;;;1.25;;
65275;SDS011;51875;49.994;14.052;2023-08-31T07:34:07;3.38;;;1.30;;
65275;SDS011;51875;49.994;14.052;2023-08-31T07:35:22;1.40;;;1.10;;
65275;SDS011;51875;49.994;14.052;2023-08-31T07:36:38;2.33;;;1.50;;
65275;SDS011;51875;49.994;14.052;2023-08-31T07:37:54;2.20;;;1.70;;
65275;SDS011;51875;49.994;14.052;2023-08-31T07:39:10;1.35;;;1.25;;
65275;SDS011;51875;49.994;14.052;2023-08-31T07:40:25;1.20;;;1.10;;
65275;SDS011;51875;49.994;14.052;2023-08-31T07:41:41;2.13;;;1.15;;
65275;SDS011;51875;49.994;14.052;2023-08-31T07:42:57;1.23;;;1.08;;